createdAt,value
2023-05-09T00:01:20.948Z,11.80
2023-05-09T00:03:47.815Z,11.80
2023-05-09T00:06:15.465Z,13.00
2023-05-09T00:08:42.141Z,15.10
2023-05-09T00:11:08.990Z,15.00
2023-05-09T00:13:35.815Z,14.90
2023-05-09T00:16:03.602Z,11.90
2023-05-09T00:18:31.365Z,12.00
2023-05-09T00:20:58.104Z,11.90
2023-05-09T00:23:25.010Z,14.90
2023-05-09T00:25:51.642Z,12.30
2023-05-09T00:28:18.327Z,12.00
2023-05-09T00:30:44.945Z,14.50
2023-05-09T00:33:11.816Z,13.70
2023-05-09T00:35:38.529Z,12.10
2023-05-09T00:38:05.122Z,12.20
2023-05-09T00:40:31.974Z,12.20
2023-05-09T00:42:59.122Z,13.00
2023-05-09T00:45:25.840Z,13.30
2023-05-09T00:47:52.717Z,13.50
2023-05-09T00:50:19.743Z,12.20
2023-05-09T00:52:46.699Z,12.20
2023-05-09T00:55:13.902Z,13.90
2023-05-09T00:57:40.818Z,13.40
2023-05-09T01:00:13.160Z,14.60
2023-05-09T01:02:44.737Z,12.50
2023-05-09T01:05:11.975Z,12.60
2023-05-09T01:07:56.236Z,13.90
2023-05-09T01:10:30.543Z,12.70
2023-05-09T01:13:12.915Z,12.70
2023-05-09T01:15:43.263Z,12.70
2023-05-09T01:18:36.306Z,12.70
2023-05-09T01:21:11.646Z,12.80
2023-05-09T01:23:47.158Z,12.80
2023-05-09T01:26:19.929Z,12.80
2023-05-09T01:28:46.599Z,12.80
2023-05-09T01:31:13.280Z,12.80
2023-05-09T01:33:43.574Z,14.40
2023-05-09T01:36:12.945Z,12.90
2023-05-09T01:38:40.608Z,12.80
2023-05-09T01:41:08.838Z,12.80
2023-05-09T01:43:36.377Z,13.80
2023-05-09T01:46:04.841Z,13.00
2023-05-09T01:48:31.798Z,12.80
2023-05-09T01:50:59.116Z,12.80
2023-05-09T01:53:28.003Z,15.70
2023-05-09T01:55:54.767Z,12.90
2023-05-09T01:58:22.416Z,12.90
2023-05-09T02:00:50.559Z,12.90
2023-05-09T02:03:17.540Z,15.50
2023-05-09T02:05:44.899Z,13.00
2023-05-09T02:08:11.879Z,13.00
2023-05-09T02:10:38.892Z,13.00
2023-05-09T02:13:05.747Z,12.90
2023-05-09T02:15:32.769Z,13.40
2023-05-09T02:17:59.481Z,14.40
2023-05-09T02:20:26.316Z,12.90
2023-05-09T02:22:53.604Z,15.10
2023-05-09T02:25:20.264Z,15.40
2023-05-09T02:27:47.142Z,12.90
2023-05-09T02:30:20.580Z,12.90
2023-05-09T02:32:48.788Z,12.90
2023-05-09T02:35:17.084Z,12.80
2023-05-09T02:37:45.746Z,12.90
2023-05-09T02:40:13.424Z,12.90
2023-05-09T02:42:40.213Z,12.90
2023-05-09T02:45:07.766Z,12.80
2023-05-09T02:47:34.396Z,12.80
2023-05-09T02:50:01.030Z,14.20
2023-05-09T02:52:27.588Z,12.80
2023-05-09T02:54:54.347Z,14.80
2023-05-09T02:57:21.384Z,12.80
2023-05-09T02:59:47.947Z,12.80
2023-05-09T03:02:14.692Z,14.90
2023-05-09T03:04:41.995Z,12.90
2023-05-09T03:07:08.948Z,14.70
2023-05-09T03:09:35.876Z,12.90
2023-05-09T03:12:04.034Z,12.90
2023-05-09T03:14:31.549Z,15.50
2023-05-09T03:16:58.235Z,12.90
2023-05-09T03:19:25.156Z,12.90
2023-05-09T03:21:51.896Z,12.90
2023-05-09T03:24:18.451Z,12.90
2023-05-09T03:26:45.114Z,14.60
2023-05-09T03:29:11.896Z,13.00
2023-05-09T03:31:38.887Z,12.90
2023-05-09T03:34:06.032Z,12.90
2023-05-09T03:36:33.334Z,12.90
2023-05-09T03:39:00.258Z,14.80
2023-05-09T03:41:27.015Z,12.90
2023-05-09T03:43:53.664Z,12.90
2023-05-09T03:46:20.290Z,14.60
2023-05-09T03:48:46.931Z,12.90
2023-05-09T03:51:13.717Z,12.90
2023-05-09T03:53:40.372Z,12.90
2023-05-09T03:56:07.913Z,12.90
2023-05-09T03:58:34.519Z,12.80
2023-05-09T04:01:01.302Z,12.80
2023-05-09T04:03:28.566Z,12.80
2023-05-09T04:05:55.647Z,14.10
2023-05-09T04:08:22.366Z,12.80
2023-05-09T04:10:49.641Z,12.80
2023-05-09T04:13:16.590Z,12.70
2023-05-09T04:15:43.239Z,12.70
2023-05-09T04:18:09.870Z,14.80
2023-05-09T04:20:36.592Z,12.70
2023-05-09T04:23:03.247Z,12.70
2023-05-09T04:25:31.761Z,12.70
2023-05-09T04:27:58.474Z,12.80
2023-05-09T04:30:27.292Z,15.40
2023-05-09T04:32:55.418Z,12.70
2023-05-09T04:35:22.911Z,14.20
2023-05-09T04:37:50.182Z,12.80
2023-05-09T04:40:17.299Z,12.70
2023-05-09T04:42:47.323Z,12.80
2023-05-09T04:45:14.655Z,12.80
2023-05-09T04:47:41.466Z,12.90
2023-05-09T04:50:08.407Z,12.90
2023-05-09T04:52:35.247Z,12.90
2023-05-09T04:55:02.228Z,12.90
2023-05-09T04:57:28.871Z,14.10
2023-05-09T04:59:55.544Z,13.00
2023-05-09T05:02:22.458Z,13.00
2023-05-09T05:04:49.302Z,13.00
2023-05-09T05:07:16.135Z,14.20
2023-05-09T05:09:42.718Z,13.10
2023-05-09T05:12:09.919Z,13.20
2023-05-09T05:14:36.718Z,13.20
2023-05-09T05:17:03.419Z,13.10
2023-05-09T05:19:30.054Z,13.20
2023-05-09T05:21:56.964Z,13.10
2023-05-09T05:24:23.874Z,13.10
2023-05-09T05:26:50.588Z,13.60
2023-05-09T05:29:17.839Z,13.20
2023-05-09T05:31:44.538Z,13.20
2023-05-09T05:34:11.183Z,15.50
2023-05-09T05:36:37.903Z,14.60
2023-05-09T05:39:04.701Z,13.20
2023-05-09T05:41:31.411Z,13.10
2023-05-09T05:43:58.254Z,13.10
2023-05-09T05:46:24.947Z,13.20
2023-05-09T05:48:51.886Z,13.20
2023-05-09T05:51:18.475Z,13.20
2023-05-09T05:53:45.301Z,13.20
2023-05-09T05:56:12.131Z,13.20
2023-05-09T05:58:38.873Z,13.20
2023-05-09T06:01:05.733Z,13.20
2023-05-09T06:03:32.521Z,13.30
2023-05-09T06:05:59.225Z,13.30
2023-05-09T06:08:25.912Z,13.40
2023-05-09T06:10:52.653Z,13.40
2023-05-09T06:13:19.506Z,13.50
2023-05-09T06:15:46.322Z,13.60
2023-05-09T06:18:13.398Z,14.90
2023-05-09T06:20:40.146Z,15.60
2023-05-09T06:23:07.189Z,13.60
2023-05-09T06:25:33.825Z,15.40
2023-05-09T06:28:00.829Z,13.70
2023-05-09T06:30:27.465Z,13.70
2023-05-09T06:32:54.561Z,14.70
2023-05-09T06:35:21.714Z,13.80
2023-05-09T06:37:49.140Z,13.80
2023-05-09T06:40:16.285Z,13.80
2023-05-09T06:42:42.923Z,13.80
2023-05-09T06:45:09.953Z,14.80
2023-05-09T06:47:36.784Z,14.00
2023-05-09T06:50:03.968Z,14.50
2023-05-09T06:52:30.944Z,14.10
2023-05-09T06:54:58.014Z,14.10
2023-05-09T06:57:24.760Z,14.10
2023-05-09T06:59:51.345Z,14.10
2023-05-09T07:02:18.283Z,15.60
2023-05-09T07:04:44.994Z,14.10
2023-05-09T07:07:11.687Z,14.10
2023-05-09T07:09:38.246Z,15.60
2023-05-09T07:12:05.286Z,14.20
2023-05-09T07:14:32.020Z,14.20
2023-05-09T07:17:13.687Z,14.20
2023-05-09T07:19:45.354Z,14.30
2023-05-09T07:22:13.616Z,14.30
2023-05-09T07:24:40.265Z,14.50
2023-05-09T07:27:06.930Z,14.60
2023-05-09T07:29:33.660Z,14.50
2023-05-09T07:32:00.352Z,14.40
2023-05-09T07:34:27.571Z,11.40
2023-05-09T07:36:54.290Z,14.50
2023-05-09T07:39:21.246Z,15.40
2023-05-09T07:41:48.865Z,14.90
2023-05-09T07:44:16.077Z,15.00
2023-05-09T07:46:43.034Z,15.10
2023-05-09T07:49:09.964Z,16.00
2023-05-09T07:51:36.729Z,15.20
2023-05-09T07:54:03.393Z,15.40
2023-05-09T07:56:30.264Z,15.10
2023-05-09T07:58:57.338Z,15.20
2023-05-09T08:01:24.046Z,15.20
2023-05-09T08:03:51.111Z,16.10
2023-05-09T08:06:17.891Z,17.30
2023-05-09T08:08:44.654Z,15.40
2023-05-09T08:11:11.406Z,15.40
2023-05-09T08:13:38.088Z,15.50
2023-05-09T08:16:05.445Z,15.50
2023-05-09T08:18:32.525Z,15.60
2023-05-09T08:20:59.778Z,15.60
2023-05-09T08:23:26.748Z,16.90
2023-05-09T08:25:54.515Z,15.50
2023-05-09T08:28:24.050Z,15.40
2023-05-09T08:30:51.470Z,15.50
2023-05-09T08:33:18.178Z,16.00
2023-05-09T08:35:45.188Z,15.80
2023-05-09T08:38:12.245Z,15.90
2023-05-09T08:40:38.976Z,15.90
2023-05-09T08:43:06.506Z,16.00
2023-05-09T08:45:35.529Z,16.10
2023-05-09T08:48:06.587Z,16.20
2023-05-09T08:50:36.892Z,16.10
2023-05-09T08:53:03.698Z,16.20
2023-05-09T08:55:30.840Z,16.30
2023-05-09T08:57:57.865Z,16.30
2023-05-09T09:00:25.547Z,17.00
2023-05-09T09:02:53.548Z,16.50
2023-05-09T09:05:40.106Z,16.60
2023-05-09T09:08:07.773Z,17.50
2023-05-09T09:10:34.512Z,17.40
2023-05-09T09:13:04.373Z,17.20
2023-05-09T09:15:34.921Z,18.00
2023-05-09T09:18:09.055Z,18.40
2023-05-09T09:20:37.412Z,17.60
2023-05-09T09:23:05.551Z,17.70
2023-05-09T09:25:32.176Z,18.50
2023-05-09T09:27:58.739Z,17.70
2023-05-09T09:30:26.396Z,17.90
2023-05-09T09:32:53.053Z,18.10
2023-05-09T09:35:20.542Z,18.80
2023-05-09T09:37:47.520Z,18.10
2023-05-09T09:40:14.692Z,18.90
2023-05-09T09:42:43.275Z,18.20
2023-05-09T09:45:11.651Z,19.10
2023-05-09T09:47:38.481Z,18.20
2023-05-09T09:50:18.723Z,18.20
2023-05-09T09:52:56.187Z,18.20
2023-05-09T09:55:24.367Z,18.20
2023-05-09T09:57:51.612Z,18.30
2023-05-09T10:00:19.254Z,18.90
2023-05-09T10:02:50.484Z,18.50
2023-05-09T10:05:21.130Z,18.70
2023-05-09T10:07:53.142Z,18.80
2023-05-09T10:10:20.093Z,18.90
2023-05-09T10:12:47.724Z,19.00
2023-05-09T10:15:16.822Z,19.40
2023-05-09T10:17:43.890Z,20.00
2023-05-09T10:20:12.584Z,19.40
2023-05-09T10:22:40.094Z,19.40
2023-05-09T10:25:13.155Z,19.50
2023-05-09T10:27:44.619Z,19.50
2023-05-09T10:30:19.040Z,19.30
2023-05-09T10:32:45.890Z,19.40
2023-05-09T10:35:14.098Z,19.40
2023-05-09T10:37:41.362Z,19.90
2023-05-09T10:40:08.618Z,20.10
2023-05-09T10:42:35.588Z,19.20
2023-05-09T10:45:02.948Z,19.50
2023-05-09T10:47:29.869Z,19.20
2023-05-09T10:49:57.314Z,22.40
2023-05-09T10:52:24.286Z,19.10
2023-05-09T10:55:04.138Z,20.90
2023-05-09T10:57:32.037Z,19.20
2023-05-09T10:59:59.259Z,20.40
2023-05-09T11:02:29.547Z,21.60
2023-05-09T11:05:19.133Z,19.60
2023-05-09T11:07:46.140Z,19.70
2023-05-09T11:10:20.662Z,20.10
2023-05-09T11:12:57.492Z,19.80
2023-05-09T11:15:24.964Z,19.80
2023-05-09T11:18:04.552Z,19.90
2023-05-09T11:20:33.338Z,21.90
2023-05-09T11:23:01.206Z,22.50
2023-05-09T11:25:29.263Z,19.90
2023-05-09T11:28:01.026Z,19.50
2023-05-09T11:30:39.713Z,19.80
2023-05-09T11:33:06.885Z,19.90
2023-05-09T11:35:36.790Z,19.80
2023-05-09T11:38:04.861Z,19.90
2023-05-09T11:40:32.253Z,19.70
2023-05-09T11:42:59.968Z,19.70
2023-05-09T11:45:30.469Z,19.80
2023-05-09T11:47:57.635Z,19.90
2023-05-09T11:50:24.703Z,19.90
2023-05-09T11:52:51.425Z,20.00
2023-05-09T11:55:19.949Z,20.00
2023-05-09T11:57:50.660Z,21.70
2023-05-09T12:00:18.571Z,20.10
2023-05-09T12:02:46.176Z,20.30
2023-05-09T12:05:14.697Z,20.30
2023-05-09T12:07:42.259Z,20.20
2023-05-09T12:10:10.097Z,20.30
2023-05-09T12:12:37.869Z,20.30
2023-05-09T12:15:09.135Z,20.30
2023-05-09T12:17:36.163Z,20.30
2023-05-09T12:20:05.896Z,20.40
2023-05-09T12:22:33.227Z,22.10
2023-05-09T12:25:01.948Z,20.50
2023-05-09T12:27:29.186Z,20.60
2023-05-09T12:29:56.104Z,20.70
2023-05-09T12:32:23.179Z,20.60
2023-05-09T12:34:50.200Z,22.70
2023-05-09T12:37:18.311Z,20.70
2023-05-09T12:39:45.543Z,22.60
2023-05-09T12:42:13.012Z,20.90
2023-05-09T12:44:40.062Z,20.90
2023-05-09T12:47:07.199Z,20.90
2023-05-09T12:49:36.823Z,21.40
2023-05-09T12:52:05.011Z,20.90
2023-05-09T12:54:32.164Z,20.90
2023-05-09T12:56:59.227Z,20.90
2023-05-09T12:59:27.416Z,22.20
2023-05-09T13:01:58.366Z,22.90
2023-05-09T13:04:26.025Z,20.90
2023-05-09T13:06:55.430Z,22.40
2023-05-09T13:09:23.064Z,20.80
2023-05-09T13:11:50.926Z,21.80
2023-05-09T13:14:21.715Z,20.80
2023-05-09T13:16:48.469Z,20.90
2023-05-09T13:19:15.212Z,22.20
2023-05-09T13:21:41.996Z,20.70
2023-05-09T13:24:08.662Z,21.60
2023-05-09T13:26:35.672Z,21.00
2023-05-09T13:29:02.375Z,21.00
2023-05-09T13:31:29.067Z,21.00
2023-05-09T13:33:56.006Z,21.10
2023-05-09T13:36:23.159Z,22.40
2023-05-09T13:38:50.005Z,21.10
2023-05-09T13:41:20.864Z,21.00
2023-05-09T13:43:47.610Z,21.50
2023-05-09T13:46:14.678Z,22.80
2023-05-09T13:48:42.016Z,23.60
2023-05-09T13:51:08.771Z,21.20
2023-05-09T13:53:38.109Z,21.40
2023-05-09T13:56:07.005Z,21.30
2023-05-09T13:58:34.012Z,21.20
2023-05-09T14:01:00.764Z,22.20
2023-05-09T14:03:28.331Z,21.20
2023-05-09T14:05:55.041Z,21.10
2023-05-09T14:08:21.900Z,21.90
2023-05-09T14:10:48.532Z,23.00
2023-05-09T14:13:15.658Z,21.10
2023-05-09T14:15:42.696Z,21.00
2023-05-09T14:18:09.439Z,21.00
2023-05-09T14:20:37.775Z,21.00
2023-05-09T14:23:04.537Z,21.00
2023-05-09T14:25:31.837Z,21.60
2023-05-09T14:27:59.829Z,21.00
2023-05-09T14:30:26.874Z,20.90
2023-05-09T14:32:53.598Z,21.00
2023-05-09T14:35:20.369Z,20.00
2023-05-09T14:37:47.088Z,19.50
2023-05-09T14:40:14.711Z,19.10
2023-05-09T14:42:42.230Z,18.80
2023-05-09T14:45:11.224Z,18.80
2023-05-09T14:47:37.949Z,18.80
2023-05-09T14:50:04.985Z,19.30
2023-05-09T14:52:31.605Z,18.80
2023-05-09T14:54:59.748Z,21.40
2023-05-09T14:57:26.606Z,21.70
2023-05-09T14:59:53.363Z,19.20
2023-05-09T15:02:20.034Z,19.10
2023-05-09T15:04:46.739Z,19.20
2023-05-09T15:07:13.373Z,19.10
2023-05-09T15:09:40.067Z,19.10
2023-05-09T15:12:06.997Z,19.00
2023-05-09T15:14:33.898Z,19.00
2023-05-09T15:17:03.420Z,19.00
2023-05-09T15:19:31.745Z,19.00
2023-05-09T15:21:59.518Z,19.30
2023-05-09T15:24:26.905Z,21.20
2023-05-09T15:26:54.494Z,22.70
2023-05-09T15:29:24.237Z,20.50
2023-05-09T15:31:51.015Z,16.70
2023-05-09T15:34:17.949Z,22.20
2023-05-09T15:36:46.993Z,19.30
2023-05-09T15:39:13.836Z,19.70
2023-05-09T15:41:40.464Z,19.90
2023-05-09T15:44:07.338Z,18.80
2023-05-09T15:46:34.227Z,18.70
2023-05-09T15:49:00.862Z,19.90
2023-05-09T15:51:30.000Z,18.70
2023-05-09T15:53:56.932Z,18.60
2023-05-09T15:56:23.952Z,18.60
2023-05-09T15:58:50.796Z,18.60
2023-05-09T16:01:17.780Z,18.60
2023-05-09T16:03:45.070Z,21.30
2023-05-09T16:06:12.880Z,19.60
2023-05-09T16:08:39.665Z,18.70
2023-05-09T16:11:06.399Z,18.70
2023-05-09T16:13:35.762Z,20.00
2023-05-09T16:16:03.153Z,18.90
2023-05-09T16:18:29.785Z,18.70
2023-05-09T16:20:56.348Z,18.80
2023-05-09T16:23:23.577Z,18.20
2023-05-09T16:25:50.548Z,17.90
2023-05-09T16:28:19.389Z,17.80
2023-05-09T16:30:46.038Z,17.70
2023-05-09T16:33:13.113Z,17.70
2023-05-09T16:35:40.309Z,17.70
2023-05-09T16:38:07.282Z,18.80
2023-05-09T16:40:34.328Z,17.70
2023-05-09T16:43:00.911Z,17.60
2023-05-09T16:45:27.713Z,20.00
2023-05-09T16:47:55.718Z,17.70
2023-05-09T16:50:22.884Z,17.30
2023-05-09T16:52:50.005Z,17.10
2023-05-09T16:55:16.892Z,19.80
2023-05-09T16:57:43.562Z,16.70
2023-05-09T17:00:10.829Z,19.40
2023-05-09T17:02:37.547Z,16.20
2023-05-09T17:05:04.512Z,18.30
2023-05-09T17:07:32.216Z,16.00
2023-05-09T17:09:59.231Z,16.00
2023-05-09T17:12:27.437Z,17.30
2023-05-09T17:14:54.085Z,16.20
2023-05-09T17:17:20.776Z,16.00
2023-05-09T17:19:47.601Z,16.00
2023-05-09T17:22:14.231Z,16.70
2023-05-09T17:24:40.919Z,18.70
2023-05-09T17:27:07.679Z,15.80
2023-05-09T17:29:34.594Z,15.70
2023-05-09T17:32:01.344Z,17.50
2023-05-09T17:34:28.777Z,17.00
2023-05-09T17:36:56.236Z,16.30
2023-05-09T17:39:22.980Z,17.10
2023-05-09T17:41:49.639Z,15.40
2023-05-09T17:44:16.648Z,16.20
2023-05-09T17:46:44.091Z,16.90
2023-05-09T17:49:13.760Z,16.80
2023-05-09T17:51:40.468Z,15.40
2023-05-09T17:54:07.299Z,15.70
2023-05-09T17:56:34.544Z,15.50
2023-05-09T17:59:01.592Z,16.90
2023-05-09T18:01:28.704Z,17.00
2023-05-09T18:03:55.569Z,18.00
2023-05-09T18:06:22.179Z,18.00
2023-05-09T18:08:48.833Z,15.60
2023-05-09T18:11:15.770Z,15.30
2023-05-09T18:13:42.451Z,15.20
2023-05-09T18:16:09.302Z,15.20
2023-05-09T18:18:36.757Z,17.20
2023-05-09T18:21:05.540Z,15.30
2023-05-09T18:23:32.303Z,15.20
2023-05-09T18:25:59.304Z,15.10
2023-05-09T18:28:26.198Z,15.70
2023-05-09T18:31:00.500Z,16.00
2023-05-09T18:33:28.216Z,14.90
2023-05-09T18:35:55.212Z,16.20
2023-05-09T18:38:21.886Z,15.60
2023-05-09T18:40:48.531Z,15.90
2023-05-09T18:43:16.526Z,14.80
2023-05-09T18:45:45.224Z,15.40
2023-05-09T18:48:12.095Z,17.50
2023-05-09T18:50:39.275Z,17.50
2023-05-09T18:53:06.153Z,17.70
2023-05-09T18:55:32.808Z,16.60
2023-05-09T18:57:59.472Z,15.30
2023-05-09T19:00:26.161Z,15.00
2023-05-09T19:02:52.779Z,14.70
2023-05-09T19:05:20.465Z,15.10
2023-05-09T19:07:47.178Z,14.70
2023-05-09T19:10:14.678Z,16.60
2023-05-09T19:12:41.641Z,16.70
2023-05-09T19:15:08.687Z,15.60
2023-05-09T19:17:35.599Z,14.60
2023-05-09T19:20:02.922Z,14.70
2023-05-09T19:22:29.553Z,16.30
2023-05-09T19:24:59.543Z,15.00
2023-05-09T19:27:26.367Z,14.50
2023-05-09T19:29:53.355Z,15.90
2023-05-09T19:32:19.973Z,14.40
2023-05-09T19:34:46.533Z,15.40
2023-05-09T19:37:13.175Z,15.40
2023-05-09T19:39:40.351Z,14.40
2023-05-09T19:42:07.993Z,14.30
2023-05-09T19:44:34.588Z,14.20
2023-05-09T19:47:05.064Z,14.30
2023-05-09T19:49:33.007Z,15.50
2023-05-09T19:51:59.638Z,14.20
2023-05-09T19:54:27.182Z,14.70
2023-05-09T19:56:53.937Z,14.20
2023-05-09T19:59:20.895Z,14.10
2023-05-09T20:01:47.837Z,14.10
2023-05-09T20:04:16.742Z,14.10
2023-05-09T20:06:43.343Z,15.70
2023-05-09T20:09:10.172Z,14.00
2023-05-09T20:11:37.013Z,14.10
2023-05-09T20:14:04.101Z,14.00
2023-05-09T20:16:31.120Z,15.90
2023-05-09T20:18:58.529Z,15.90
2023-05-09T20:21:27.075Z,16.20
2023-05-09T20:23:53.969Z,16.40
2023-05-09T20:26:23.196Z,13.90
2023-05-09T20:28:51.274Z,13.90
2023-05-09T20:31:19.560Z,13.90
2023-05-09T20:33:46.264Z,14.20
2023-05-09T20:36:13.000Z,13.90
2023-05-09T20:38:39.881Z,15.50
2023-05-09T20:41:06.558Z,13.80
2023-05-09T20:43:33.257Z,13.80
2023-05-09T20:46:00.970Z,14.90
2023-05-09T20:48:27.608Z,14.00
2023-05-09T20:50:54.234Z,13.90
2023-05-09T20:53:21.943Z,13.80
2023-05-09T20:55:50.422Z,13.80
2023-05-09T20:58:17.533Z,13.80
2023-05-09T21:00:47.218Z,13.80
2023-05-09T21:03:14.283Z,13.90
2023-05-09T21:05:41.035Z,14.90
2023-05-09T21:08:07.664Z,13.80
2023-05-09T21:10:34.613Z,13.80
2023-05-09T21:13:01.326Z,13.80
2023-05-09T21:15:27.979Z,15.70
2023-05-09T21:17:54.685Z,15.40
2023-05-09T21:20:21.681Z,13.80
2023-05-09T21:22:48.394Z,13.80
2023-05-09T21:25:15.904Z,13.70
2023-05-09T21:27:43.018Z,13.70
2023-05-09T21:30:10.347Z,13.70
2023-05-09T21:32:37.159Z,13.70
2023-05-09T21:35:04.367Z,14.00
2023-05-09T21:37:31.147Z,13.60
2023-05-09T21:39:57.748Z,15.60
2023-05-09T21:42:24.395Z,13.70
2023-05-09T21:44:51.015Z,13.70
2023-05-09T21:47:17.802Z,13.60
2023-05-09T21:49:44.504Z,13.80
2023-05-09T21:52:11.342Z,13.60
2023-05-09T21:54:38.355Z,13.60
2023-05-09T21:57:05.442Z,16.70
2023-05-09T21:59:33.127Z,13.60
2023-05-09T22:02:00.036Z,13.60
2023-05-09T22:04:26.677Z,14.50
2023-05-09T22:06:53.588Z,14.60
2023-05-09T22:09:20.896Z,15.30
2023-05-09T22:11:47.702Z,13.50
2023-05-09T22:14:14.455Z,13.60
2023-05-09T22:16:41.421Z,14.80
2023-05-09T22:19:08.364Z,14.00
2023-05-09T22:21:37.129Z,14.30
2023-05-09T22:24:03.962Z,15.40
2023-05-09T22:26:30.818Z,13.50
2023-05-09T22:28:57.502Z,15.30
2023-05-09T22:31:24.383Z,13.50
2023-05-09T22:33:52.062Z,14.40
2023-05-09T22:36:18.689Z,13.50
2023-05-09T22:38:45.284Z,13.40
2023-05-09T22:41:12.114Z,13.40
2023-05-09T22:43:39.837Z,13.40
2023-05-09T22:46:06.698Z,15.80
2023-05-09T22:48:33.662Z,13.40
2023-05-09T22:51:00.219Z,15.80
2023-05-09T22:53:28.171Z,14.70
2023-05-09T22:55:56.968Z,16.10
2023-05-09T22:58:23.574Z,13.40
2023-05-09T23:00:50.224Z,15.40
2023-05-09T23:03:17.397Z,13.40
2023-05-09T23:05:44.166Z,14.40
2023-05-09T23:08:10.986Z,14.90
2023-05-09T23:10:37.567Z,13.30
2023-05-09T23:13:04.811Z,13.30
2023-05-09T23:15:31.623Z,13.30
2023-05-09T23:17:58.401Z,13.30
2023-05-09T23:20:25.653Z,13.90
2023-05-09T23:22:52.452Z,13.30
2023-05-09T23:25:19.192Z,13.20
2023-05-09T23:27:46.927Z,13.20
2023-05-09T23:30:14.226Z,14.80
2023-05-09T23:32:41.078Z,13.20
2023-05-09T23:35:08.118Z,13.50
2023-05-09T23:37:34.700Z,13.20
2023-05-09T23:40:01.464Z,13.20
2023-05-09T23:42:28.481Z,13.20
2023-05-09T23:44:55.092Z,13.30
2023-05-09T23:47:21.802Z,13.20
2023-05-09T23:49:48.479Z,13.20
2023-05-09T23:52:15.664Z,13.20
2023-05-09T23:54:42.217Z,13.20
2023-05-09T23:57:08.879Z,14.30
2023-05-09T23:59:35.648Z,14.10
